Terminal Aerodrome Forecast
Issued by NWS Wilmington, OH

Current Version | Previous Version | Graphics & Text | Print | Product List | Glossary On
Versions: 1 2 3 4 5 6 7 8 9 10 11 12 13 14
000
FTUS41 KILN 251100
TAFCMH
TAF
KCMH 251122Z 2512/2612 25014G22KT P6SM BKN015 OVC022
     FM251700 23013KT P6SM OVC025
     FM260100 18006KT P6SM SKC=

USA.gov is the U.S. government's official web portal to all federal, state and local government web resources and services.